createdAt,value
2023-04-02T00:00:10.559Z,6.30
2023-04-02T00:02:57.728Z,6.30
2023-04-02T00:05:34.610Z,6.30
2023-04-02T00:08:19.002Z,6.40
2023-04-02T00:11:02.719Z,6.30
2023-04-02T00:16:04.052Z,6.30
2023-04-02T00:21:28.454Z,6.70
2023-04-02T00:23:58.523Z,6.40
2023-04-02T00:26:41.140Z,6.40
2023-04-02T00:29:13.487Z,6.40
2023-04-02T00:31:48.377Z,6.40
2023-04-02T00:34:24.018Z,6.30
2023-04-02T00:39:28.259Z,6.20
2023-04-02T00:42:05.628Z,6.10
2023-04-02T00:44:42.964Z,6.30
2023-04-02T00:47:34.262Z,6.30
2023-04-02T00:50:21.020Z,6.20
2023-04-02T00:52:52.523Z,6.20
2023-04-02T00:55:36.612Z,6.30
2023-04-02T01:00:38.017Z,6.30
2023-04-02T01:03:18.463Z,6.20
2023-04-02T01:06:02.764Z,6.20
2023-04-02T01:09:08.484Z,6.10
2023-04-02T01:12:20.717Z,6.00
2023-04-02T01:15:22.028Z,6.40
2023-04-02T01:18:14.131Z,6.00
2023-04-02T01:21:03.361Z,5.70
2023-04-02T01:26:24.706Z,6.00
2023-04-02T01:29:20.428Z,5.90
2023-04-02T01:31:50.850Z,5.90
2023-04-02T01:34:25.252Z,5.80
2023-04-02T01:37:37.803Z,5.80
2023-04-02T01:40:59.931Z,5.80
2023-04-02T01:46:00.356Z,5.60
2023-04-02T01:48:32.928Z,5.70
2023-04-02T01:51:05.467Z,5.60
2023-04-02T01:56:04.931Z,5.50
2023-04-02T01:58:34.470Z,5.20
2023-04-02T02:01:19.971Z,5.40
2023-04-02T02:06:19.125Z,5.50
2023-04-02T02:09:06.535Z,5.30
2023-04-02T02:11:36.604Z,5.40
2023-04-02T02:14:21.111Z,5.40
2023-04-02T02:19:36.992Z,5.50
2023-04-02T02:22:27.802Z,5.50
2023-04-02T02:25:00.296Z,5.40
2023-04-02T02:30:12.856Z,5.40
2023-04-02T02:33:23.500Z,5.40
2023-04-02T02:36:04.836Z,5.30
2023-04-02T02:38:36.052Z,5.40
2023-04-02T02:41:22.720Z,5.40
2023-04-02T02:44:05.776Z,5.50
2023-04-02T02:46:36.166Z,5.40
2023-04-02T02:49:06.113Z,5.50
2023-04-02T02:52:11.600Z,5.20
2023-04-02T02:54:46.323Z,5.40
2023-04-02T02:57:22.088Z,5.30
2023-04-02T02:59:52.370Z,5.20
2023-04-02T03:04:53.908Z,5.10
2023-04-02T03:07:27.820Z,5.00
2023-04-02T03:10:16.812Z,5.10
2023-04-02T03:13:19.869Z,5.00
2023-04-02T03:16:00.353Z,5.00
2023-04-02T03:18:43.828Z,5.00
2023-04-02T03:21:28.010Z,5.00
2023-04-02T03:24:03.003Z,5.00
2023-04-02T03:27:00.655Z,4.90
2023-04-02T03:29:33.457Z,5.00
2023-04-02T03:32:12.003Z,5.00
2023-04-02T03:34:51.412Z,5.00
2023-04-02T03:37:25.847Z,4.90
2023-04-02T03:40:17.071Z,4.90
2023-04-02T03:42:56.636Z,4.90
2023-04-02T03:45:34.428Z,4.90
2023-04-02T03:48:13.006Z,4.70
2023-04-02T03:51:19.534Z,4.90
2023-04-02T03:53:49.385Z,4.90
2023-04-02T03:56:34.181Z,4.80
2023-04-02T03:59:40.079Z,4.80
2023-04-02T04:02:35.777Z,4.80
2023-04-02T04:05:06.868Z,4.80
2023-04-02T04:07:40.543Z,4.70
2023-04-02T04:10:11.447Z,4.70
2023-04-02T04:12:49.323Z,4.60
2023-04-02T04:15:41.249Z,4.60
2023-04-02T04:21:30.971Z,4.60
2023-04-02T04:24:04.918Z,4.50
2023-04-02T04:26:58.015Z,4.60
2023-04-02T04:34:42.370Z,4.70
2023-04-02T04:37:26.341Z,4.70
2023-04-02T04:40:07.635Z,4.60
2023-04-02T04:42:39.465Z,4.60
2023-04-02T04:45:32.999Z,4.80
2023-04-02T04:48:20.877Z,4.60
2023-04-02T04:51:00.770Z,4.60
2023-04-02T04:53:31.804Z,4.70
2023-04-02T04:56:18.626Z,4.50
2023-04-02T04:59:07.360Z,4.80
2023-04-02T05:04:33.775Z,4.70
2023-04-02T05:07:12.483Z,4.60
2023-04-02T05:10:04.844Z,4.70
2023-04-02T05:13:15.795Z,4.60
2023-04-02T05:16:15.776Z,4.50
2023-04-02T05:18:58.175Z,4.60
2023-04-02T05:21:50.463Z,4.60
2023-04-02T05:27:24.999Z,4.60
2023-04-02T05:30:04.828Z,4.60
2023-04-02T05:32:44.523Z,4.60
2023-04-02T05:35:22.061Z,4.40
2023-04-02T05:40:31.099Z,4.60
2023-04-02T05:43:05.106Z,4.60
2023-04-02T05:45:40.478Z,4.50
2023-04-02T05:48:36.657Z,4.50
2023-04-02T05:51:09.844Z,4.40
2023-04-02T05:54:02.807Z,4.50
2023-04-02T05:56:47.382Z,4.50
2023-04-02T05:59:43.281Z,4.60
2023-04-02T06:02:31.066Z,4.50
2023-04-02T06:05:28.125Z,4.70
2023-04-02T06:08:08.697Z,4.50
2023-04-02T06:11:06.996Z,4.70
2023-04-02T06:18:37.125Z,4.80
2023-04-02T06:21:06.677Z,4.80
2023-04-02T06:23:44.795Z,4.60
2023-04-02T06:26:31.534Z,4.70
2023-04-02T06:29:19.169Z,4.80
2023-04-02T06:32:01.206Z,4.90
2023-04-02T06:34:31.744Z,4.90
2023-04-02T06:37:28.795Z,4.80
2023-04-02T06:39:59.094Z,4.90
2023-04-02T06:42:48.367Z,4.90
2023-04-02T06:45:27.804Z,4.80
2023-04-02T06:47:58.649Z,4.80
2023-04-02T06:50:57.096Z,4.60
2023-04-02T06:53:51.622Z,4.90
2023-04-02T06:56:47.841Z,4.40
2023-04-02T06:59:17.029Z,4.80
2023-04-02T07:01:50.941Z,4.90
2023-04-02T07:04:22.051Z,4.80
2023-04-02T07:16:46.006Z,4.80
2023-04-02T07:19:22.098Z,4.80
2023-04-02T07:29:19.947Z,5.00
2023-04-02T07:42:03.045Z,5.20
2023-04-02T08:01:54.523Z,5.00
2023-04-02T08:04:24.215Z,5.00
2023-04-02T08:16:56.602Z,5.10
2023-04-02T08:21:56.696Z,5.20
2023-04-02T08:29:23.423Z,4.90
2023-04-02T08:37:01.155Z,4.90
2023-04-02T08:45:21.174Z,5.20
2023-04-02T08:47:57.593Z,5.10
2023-04-02T08:50:37.502Z,5.10
2023-04-02T08:53:26.990Z,5.00
2023-04-02T08:56:18.996Z,5.10
2023-04-02T08:58:56.477Z,5.10
2023-04-02T09:02:03.731Z,5.10
2023-04-02T09:04:34.401Z,5.10
2023-04-02T09:07:08.382Z,5.10
2023-04-02T09:09:44.057Z,5.30
2023-04-02T09:12:37.275Z,5.60
2023-04-02T09:15:30.617Z,5.30
2023-04-02T09:18:19.967Z,5.40
2023-04-02T09:23:26.163Z,5.50
2023-04-02T09:26:04.218Z,5.50
2023-04-02T09:31:37.772Z,5.30
2023-04-02T09:34:35.206Z,6.00
2023-04-02T09:37:31.286Z,5.60
2023-04-02T09:40:18.602Z,5.70
2023-04-02T09:47:52.974Z,5.60
2023-04-02T09:55:31.336Z,5.80
2023-04-02T09:58:18.910Z,5.80
2023-04-02T10:01:08.480Z,5.80
2023-04-02T10:06:14.898Z,5.60
2023-04-02T10:08:46.271Z,5.90
2023-04-02T10:11:43.753Z,5.90
2023-04-02T10:14:25.736Z,5.60
2023-04-02T10:17:11.548Z,6.00
2023-04-02T10:19:45.393Z,6.00
2023-04-02T10:22:20.050Z,6.10
2023-04-02T10:27:31.994Z,5.80
2023-04-02T10:30:15.029Z,5.70
2023-04-02T10:33:02.443Z,6.10
2023-04-02T10:35:55.189Z,6.10
2023-04-02T10:41:21.389Z,6.10
2023-04-02T10:47:05.097Z,5.90
2023-04-02T10:49:43.910Z,6.60
2023-04-02T10:52:32.882Z,6.70
2023-04-02T10:55:19.533Z,6.20
2023-04-02T11:00:30.276Z,7.10
2023-04-02T11:05:53.092Z,6.60
2023-04-02T11:08:24.240Z,6.60
2023-04-02T11:11:08.102Z,6.40
2023-04-02T11:14:01.996Z,6.10
2023-04-02T11:19:16.991Z,6.70
2023-04-02T11:21:59.994Z,6.60
2023-04-02T11:24:33.010Z,6.70
2023-04-02T11:27:14.497Z,6.50
2023-04-02T11:29:54.481Z,6.90
2023-04-02T11:32:27.239Z,6.50
2023-04-02T11:35:05.135Z,6.90
2023-04-02T11:37:43.896Z,6.90
2023-04-02T11:40:15.498Z,6.90
2023-04-02T11:42:47.261Z,6.90
2023-04-02T11:45:24.640Z,6.50
2023-04-02T11:48:02.314Z,6.70
2023-04-02T11:53:12.691Z,7.10
2023-04-02T11:55:59.791Z,7.30
2023-04-02T11:59:04.086Z,7.40
2023-04-02T12:02:19.282Z,8.10
2023-04-02T12:05:07.533Z,7.60
2023-04-02T12:08:13.246Z,7.60
2023-04-02T12:11:02.642Z,7.60
2023-04-02T12:13:42.939Z,8.00
2023-04-02T12:16:15.596Z,7.90
2023-04-02T12:18:53.670Z,7.60
2023-04-02T12:21:26.519Z,7.60
2023-04-02T12:24:01.945Z,7.60
2023-04-02T12:26:38.504Z,8.90
2023-04-02T12:29:18.628Z,7.30
2023-04-02T12:31:50.500Z,7.70
2023-04-02T12:34:23.536Z,7.40
2023-04-02T12:37:03.929Z,7.50
2023-04-02T12:39:34.552Z,6.30
2023-04-02T12:42:06.156Z,7.30
2023-04-02T12:44:42.897Z,7.80
2023-04-02T12:47:17.196Z,7.40
2023-04-02T12:49:46.318Z,7.60
2023-04-02T12:52:23.017Z,7.50
2023-04-02T12:54:55.391Z,7.60
2023-04-02T12:59:59.973Z,8.40
2023-04-02T13:02:32.782Z,7.90
2023-04-02T13:05:05.561Z,7.90
2023-04-02T13:07:35.232Z,8.20
2023-04-02T13:10:28.901Z,8.00
2023-04-02T13:13:02.936Z,8.10
2023-04-02T13:15:39.623Z,8.40
2023-04-02T13:18:14.032Z,8.30
2023-04-02T13:21:03.337Z,8.30
2023-04-02T13:23:31.810Z,8.40
2023-04-02T13:26:22.754Z,8.30
2023-04-02T13:29:10.313Z,7.90
2023-04-02T13:39:06.099Z,8.40
2023-04-02T13:41:42.823Z,7.70
2023-04-02T13:44:24.415Z,8.10
2023-04-02T13:46:53.645Z,8.20
2023-04-02T13:49:22.863Z,7.70
2023-04-02T13:51:57.935Z,8.90
2023-04-02T13:54:45.668Z,7.70
2023-04-02T13:57:13.975Z,8.60
2023-04-02T13:59:42.143Z,8.10
2023-04-02T14:02:18.189Z,8.40
2023-04-02T14:04:52.595Z,9.00
2023-04-02T14:07:54.001Z,8.60
2023-04-02T14:11:14.018Z,8.60
2023-04-02T14:13:56.413Z,8.50
2023-04-02T14:19:25.274Z,8.20
2023-04-02T14:22:26.647Z,8.80
2023-04-02T14:25:54.461Z,8.30
2023-04-02T14:28:43.352Z,8.30
2023-04-02T14:31:37.815Z,8.30
2023-04-02T14:37:07.084Z,8.90
2023-04-02T14:40:35.797Z,8.20
2023-04-02T14:43:27.916Z,8.80
2023-04-02T14:46:06.295Z,7.80
2023-04-02T14:49:05.265Z,8.40
2023-04-02T14:51:58.889Z,8.40
2023-04-02T14:57:30.950Z,8.50
2023-04-02T15:00:24.231Z,8.60
2023-04-02T15:03:10.100Z,8.30
2023-04-02T15:05:51.786Z,8.30
2023-04-02T15:08:48.399Z,8.50
2023-04-02T15:11:43.684Z,8.20
2023-04-02T15:14:32.681Z,8.40
2023-04-02T15:17:00.872Z,7.90
2023-04-02T15:22:29.812Z,8.10
2023-04-02T15:25:22.194Z,8.20
2023-04-02T15:28:28.887Z,8.40
2023-04-02T15:31:00.754Z,8.40
2023-04-02T15:33:35.555Z,8.40
2023-04-02T15:36:29.672Z,8.50
2023-04-02T15:39:18.861Z,8.80
2023-04-02T15:41:58.927Z,8.30
2023-04-02T15:44:27.240Z,8.80
2023-04-02T15:47:36.800Z,8.30
2023-04-02T15:50:46.537Z,8.00
2023-04-02T15:56:26.356Z,8.20
2023-04-02T15:59:32.306Z,8.00
2023-04-02T16:04:48.913Z,8.10
2023-04-02T16:08:10.020Z,8.20
2023-04-02T16:10:43.019Z,8.10
2023-04-02T16:13:34.242Z,8.20
2023-04-02T16:16:17.355Z,8.40
2023-04-02T16:19:27.557Z,8.10
2023-04-02T16:22:12.636Z,7.40
2023-04-02T16:24:40.765Z,7.70
2023-04-02T16:29:59.904Z,7.80
2023-04-02T16:33:09.378Z,7.80
2023-04-02T16:36:08.126Z,7.70
2023-04-02T16:39:21.123Z,7.80
2023-04-02T16:41:51.855Z,8.50
2023-04-02T16:45:08.045Z,7.70
2023-04-02T16:48:06.962Z,7.90
2023-04-02T16:50:49.504Z,7.60
2023-04-02T16:53:58.380Z,7.80
2023-04-02T16:57:06.094Z,7.80
2023-04-02T17:02:39.850Z,7.30
2023-04-02T17:05:25.953Z,7.70
2023-04-02T17:08:18.046Z,7.70
2023-04-02T17:13:44.847Z,7.60
2023-04-02T17:16:34.014Z,7.50
2023-04-02T17:19:03.459Z,7.60
2023-04-02T17:21:33.556Z,7.50
2023-04-02T17:24:29.482Z,7.50
2023-04-02T17:27:08.080Z,7.50
2023-04-02T17:29:40.697Z,7.40
2023-04-02T17:32:41.096Z,7.50
2023-04-02T17:35:51.691Z,7.20
2023-04-02T17:38:32.489Z,7.50
2023-04-02T17:44:33.607Z,7.40
2023-04-02T17:47:24.861Z,7.50
2023-04-02T17:50:26.579Z,8.00
2023-04-02T17:53:09.854Z,7.80
2023-04-02T17:59:05.578Z,7.40
2023-04-02T18:02:13.677Z,7.10
2023-04-02T18:10:23.145Z,7.40
2023-04-02T18:13:18.750Z,7.30
2023-04-02T18:16:13.793Z,7.80
2023-04-02T18:18:51.040Z,7.10
2023-04-02T18:21:34.591Z,7.30
2023-04-02T18:24:17.427Z,7.40
2023-04-02T18:27:17.518Z,7.40
2023-04-02T18:30:25.171Z,7.40
2023-04-02T18:35:55.744Z,7.50
2023-04-02T18:41:39.577Z,7.40
2023-04-02T18:44:44.885Z,7.40
2023-04-02T18:47:40.840Z,7.70
2023-04-02T18:50:47.451Z,7.30
2023-04-02T18:53:21.034Z,7.40
2023-04-02T18:55:58.441Z,7.40
2023-04-02T18:58:35.944Z,7.30
2023-04-02T19:01:08.144Z,7.40
2023-04-02T19:03:51.138Z,7.50
2023-04-02T19:06:28.631Z,7.40
2023-04-02T19:09:02.820Z,7.40
2023-04-02T19:17:03.809Z,7.40
2023-04-02T19:19:43.332Z,7.30
2023-04-02T19:22:55.141Z,7.40
2023-04-02T19:26:02.756Z,7.70
2023-04-02T19:29:24.722Z,7.10
2023-04-02T19:32:36.817Z,7.10
2023-04-02T19:35:29.313Z,6.70
2023-04-02T19:38:26.915Z,9.00
2023-04-02T19:41:41.432Z,6.90
2023-04-02T19:44:13.378Z,7.00
2023-04-02T19:49:23.941Z,6.90
2023-04-02T19:56:51.449Z,6.80
2023-04-02T20:21:38.529Z,6.20
2023-04-02T20:24:08.689Z,6.60
2023-04-02T20:26:37.667Z,6.60
2023-04-02T20:29:06.488Z,6.90
2023-04-02T20:31:36.912Z,6.60
2023-04-02T21:01:30.485Z,6.20
2023-04-02T21:04:02.265Z,6.30
2023-04-02T21:06:34.165Z,6.10
2023-04-02T21:09:06.319Z,6.10
2023-04-02T21:11:37.522Z,6.10
2023-04-02T21:19:07.149Z,6.10
2023-04-02T21:21:37.143Z,6.10
2023-04-02T21:24:08.564Z,6.10
2023-04-02T21:26:41.284Z,6.10
2023-04-02T21:31:42.230Z,6.00
2023-04-02T21:34:14.878Z,5.90
2023-04-02T21:36:45.918Z,5.80
2023-04-02T21:39:19.972Z,5.70
2023-04-02T21:41:51.173Z,5.70
2023-04-02T21:44:22.287Z,5.70
2023-04-02T21:49:23.511Z,5.60
2023-04-02T22:01:52.353Z,5.60
2023-04-02T22:04:26.598Z,5.60
2023-04-02T22:06:55.483Z,5.50
2023-04-02T22:09:26.623Z,5.50
2023-04-02T22:11:59.177Z,5.50
2023-04-02T22:39:35.549Z,4.70
2023-04-02T23:39:13.955Z,4.50
2023-04-02T23:41:44.058Z,4.40
2023-04-02T23:49:12.603Z,4.40
